createdAt,value
2022-08-14T00:02:03.032Z,99178.19
2022-08-14T00:04:52.877Z,99178.75
2022-08-14T00:07:35.645Z,99177.91
2022-08-14T00:10:51.569Z,99177.06
2022-08-14T00:13:37.038Z,99173.53
2022-08-14T00:16:44.275Z,99172.16
2022-08-14T00:19:31.039Z,99168.63
2022-08-14T00:22:44.433Z,99173.78
2022-08-14T00:25:19.912Z,99174.84
2022-08-14T00:28:15.417Z,99171.31
2022-08-14T00:30:58.148Z,99167.16
2022-08-14T00:33:50.802Z,99170.44
2022-08-14T00:36:49.091Z,99156.50
2022-08-14T00:39:30.564Z,99160.88
2022-08-14T00:42:21.191Z,99161.41
2022-08-14T00:45:16.788Z,99162.75
2022-08-14T00:47:56.879Z,99154.88
2022-08-14T00:50:39.922Z,99158.63
2022-08-14T00:53:20.045Z,99153.72
2022-08-14T00:56:06.967Z,99155.91
2022-08-14T00:58:48.318Z,99159.19
2022-08-14T01:01:29.387Z,99157.28
2022-08-14T01:04:38.419Z,99155.13
2022-08-14T01:07:24.395Z,99158.63
2022-08-14T01:10:10.752Z,99166.00
2022-08-14T01:13:03.023Z,99158.91
2022-08-14T01:15:57.690Z,99154.81
2022-08-14T01:19:02.095Z,99159.16
2022-08-14T01:21:47.148Z,99144.97
2022-08-14T01:24:36.473Z,99146.09
2022-08-14T01:27:20.222Z,99152.31
2022-08-14T01:30:04.679Z,99154.75
2022-08-14T01:32:43.454Z,99155.03
2022-08-14T01:36:04.056Z,99158.53
2022-08-14T01:38:37.370Z,99161.00
2022-08-14T01:41:18.871Z,99155.31
2022-08-14T01:44:06.157Z,99160.69
2022-08-14T01:47:22.127Z,99163.94
2022-08-14T01:50:10.191Z,99156.84
2022-08-14T01:52:59.834Z,99159.03
2022-08-14T01:55:41.643Z,99160.66
2022-08-14T01:58:28.965Z,99164.47
2022-08-14T02:01:06.112Z,99163.38
2022-08-14T02:03:53.354Z,99165.00
2022-08-14T02:06:38.286Z,99166.59
2022-08-14T02:09:19.362Z,99164.16
2022-08-14T02:12:01.045Z,99163.59
2022-08-14T02:14:40.030Z,99166.84
2022-08-14T02:17:43.649Z,99168.44
2022-08-14T02:20:24.098Z,99168.69
2022-08-14T02:23:05.638Z,99163.53
2022-08-14T02:25:54.518Z,99168.97
2022-08-14T02:28:57.975Z,99166.50
2022-08-14T02:31:44.166Z,99173.09
2022-08-14T02:34:29.312Z,99175.75
2022-08-14T02:37:06.761Z,99172.97
2022-08-14T02:39:50.833Z,99174.03
2022-08-14T02:42:39.473Z,99167.78
2022-08-14T02:45:23.886Z,99173.44
2022-08-14T02:47:58.864Z,99165.28
2022-08-14T02:50:44.750Z,99168.47
2022-08-14T02:53:35.327Z,99160.03
2022-08-14T02:56:30.320Z,99160.59
2022-08-14T02:59:23.457Z,99162.91
2022-08-14T03:02:49.553Z,99159.91
2022-08-14T03:05:21.039Z,99161.00
2022-08-14T03:07:59.319Z,99159.88
2022-08-14T03:10:49.388Z,99159.63
2022-08-14T03:13:35.816Z,99158.47
2022-08-14T03:16:26.820Z,99157.91
2022-08-14T03:19:16.038Z,99154.91
2022-08-14T03:22:04.975Z,99166.03
2022-08-14T03:24:49.966Z,99161.97
2022-08-14T03:27:35.471Z,99165.00
2022-08-14T03:30:39.476Z,99167.16
2022-08-14T03:33:37.997Z,99168.78
2022-08-14T03:37:37.445Z,99172.28
2022-08-14T03:39:40.888Z,99173.56
2022-08-14T03:42:36.531Z,99173.56
2022-08-14T03:45:34.448Z,99170.31
2022-08-14T03:48:31.318Z,99177.31
2022-08-14T03:51:20.590Z,99171.88
2022-08-14T03:54:01.523Z,99173.03
2022-08-14T03:56:44.793Z,99171.38
2022-08-14T03:59:28.512Z,99180.34
2022-08-14T04:02:31.816Z,99175.75
2022-08-14T04:05:16.472Z,99168.69
2022-08-14T04:08:22.433Z,99168.75
2022-08-14T04:11:10.353Z,99162.50
2022-08-14T04:13:52.576Z,99175.03
2022-08-14T04:16:31.731Z,99180.22
2022-08-14T04:19:32.729Z,99185.13
2022-08-14T04:22:10.012Z,99175.97
2022-08-14T04:24:49.623Z,99184.97
2022-08-14T04:27:32.025Z,99181.50
2022-08-14T04:30:42.444Z,99193.47
2022-08-14T04:33:24.904Z,99184.84
2022-08-14T04:36:09.310Z,99184.06
2022-08-14T04:39:20.837Z,99181.69
2022-08-14T04:42:18.049Z,99185.31
2022-08-14T04:45:00.830Z,99193.53
2022-08-14T04:48:01.936Z,99199.84
2022-08-14T04:50:44.305Z,99208.09
2022-08-14T04:53:36.179Z,99202.72
2022-08-14T04:56:30.695Z,99208.78
2022-08-14T04:59:17.689Z,99199.66
2022-08-14T05:02:04.706Z,99205.97
2022-08-14T05:04:45.400Z,99209.53
2022-08-14T05:07:54.086Z,99204.94
2022-08-14T05:10:32.580Z,99203.28
2022-08-14T05:13:24.567Z,99206.81
2022-08-14T05:16:17.933Z,99205.66
2022-08-14T05:19:18.400Z,99202.81
2022-08-14T05:22:17.099Z,99197.53
2022-08-14T05:24:57.842Z,99203.38
2022-08-14T05:27:35.590Z,99204.53
2022-08-14T05:30:15.054Z,99205.44
2022-08-14T05:32:59.963Z,99205.06
2022-08-14T05:35:42.920Z,99206.28
2022-08-14T05:38:22.446Z,99204.84
2022-08-14T05:41:19.538Z,99195.13
2022-08-14T05:43:57.168Z,99205.91
2022-08-14T05:46:44.236Z,99198.44
2022-08-14T05:49:32.778Z,99207.88
2022-08-14T05:52:18.353Z,99201.97
2022-08-14T05:55:01.790Z,99204.38
2022-08-14T05:57:59.589Z,99198.41
2022-08-14T06:00:46.018Z,99205.03
2022-08-14T06:03:22.573Z,99201.47
2022-08-14T06:06:11.859Z,99201.75
2022-08-14T06:08:48.082Z,99201.06
2022-08-14T06:11:31.021Z,99206.50
2022-08-14T06:14:21.525Z,99201.25
2022-08-14T06:17:02.582Z,99197.28
2022-08-14T06:19:44.043Z,99196.47
2022-08-14T06:22:22.156Z,99196.66
2022-08-14T06:25:07.586Z,99192.59
2022-08-14T06:27:51.530Z,99195.03
2022-08-14T06:30:46.271Z,99196.19
2022-08-14T06:33:45.719Z,99189.03
2022-08-14T06:36:32.514Z,99189.38
2022-08-14T06:39:36.516Z,99186.19
2022-08-14T06:42:32.658Z,99182.69
2022-08-14T06:45:09.132Z,99186.59
2022-08-14T06:47:45.933Z,99182.78
2022-08-14T06:50:30.803Z,99181.50
2022-08-14T06:53:14.572Z,99181.81
2022-08-14T06:55:53.178Z,99180.56
2022-08-14T06:58:44.808Z,99180.47
2022-08-14T07:01:42.230Z,99168.66
2022-08-14T07:04:36.408Z,99171.63
2022-08-14T07:07:17.060Z,99180.94
2022-08-14T07:09:58.727Z,99177.81
2022-08-14T07:13:01.655Z,99175.63
2022-08-14T07:15:49.207Z,99175.84
2022-08-14T07:18:40.801Z,99175.34
2022-08-14T07:21:16.598Z,99167.22
2022-08-14T07:24:09.702Z,99168.88
2022-08-14T07:27:05.835Z,99164.88
2022-08-14T07:29:50.257Z,99168.00
2022-08-14T07:32:34.032Z,99167.94
2022-08-14T07:35:16.054Z,99165.63
2022-08-14T07:37:59.845Z,99167.22
2022-08-14T07:40:38.103Z,99167.00
2022-08-14T07:43:28.312Z,99166.44
2022-08-14T07:46:09.163Z,99167.94
2022-08-14T07:48:53.797Z,99164.28
2022-08-14T07:51:37.153Z,99167.81
2022-08-14T07:54:16.608Z,99163.56
2022-08-14T07:57:11.893Z,99168.97
2022-08-14T07:59:56.422Z,99162.63
2022-08-14T08:02:36.375Z,99166.66
2022-08-14T08:05:24.044Z,99165.31
2022-08-14T08:08:04.512Z,99162.34
2022-08-14T08:11:02.409Z,99160.31
2022-08-14T08:13:54.568Z,99161.81
2022-08-14T08:16:39.510Z,99154.53
2022-08-14T08:19:19.354Z,99154.06
2022-08-14T08:21:58.121Z,99154.81
2022-08-14T08:24:39.036Z,99148.31
2022-08-14T08:27:25.896Z,99154.06
2022-08-14T08:30:11.440Z,99153.50
2022-08-14T08:33:00.533Z,99158.16
2022-08-14T08:35:46.957Z,99163.13
2022-08-14T08:39:18.342Z,99151.31
2022-08-14T08:41:41.709Z,99144.16
2022-08-14T08:44:32.045Z,99141.72
2022-08-14T08:47:11.037Z,99136.63
2022-08-14T08:49:59.183Z,99140.00
2022-08-14T08:52:31.533Z,99140.44
2022-08-14T08:55:18.037Z,99133.53
2022-08-14T08:58:12.371Z,99136.00
2022-08-14T09:00:54.164Z,99136.91
2022-08-14T09:03:29.139Z,99130.81
2022-08-14T09:06:53.855Z,99133.34
2022-08-14T09:09:54.188Z,99135.00
2022-08-14T09:12:46.730Z,99128.81
2022-08-14T09:15:25.384Z,99125.56
2022-08-14T09:18:15.477Z,99121.41
2022-08-14T09:20:58.882Z,99117.53
2022-08-14T09:24:26.158Z,99116.75
2022-08-14T09:26:39.689Z,99116.84
2022-08-14T09:29:28.768Z,99114.41
2022-08-14T09:32:03.989Z,99110.19
2022-08-14T09:35:14.965Z,99108.78
2022-08-14T09:38:19.445Z,99098.22
2022-08-14T09:42:21.586Z,99107.78
2022-08-14T09:45:08.796Z,99102.13
2022-08-14T09:47:56.729Z,99110.88
2022-08-14T09:50:48.113Z,99094.56
2022-08-14T09:54:19.355Z,99091.81
2022-08-14T09:56:57.064Z,99092.22
2022-08-14T09:59:42.344Z,99085.50
2022-08-14T10:02:31.180Z,99084.38
2022-08-14T10:05:13.324Z,99077.53
2022-08-14T10:07:59.019Z,99071.13
2022-08-14T10:10:39.090Z,99075.53
2022-08-14T10:13:28.159Z,99073.59
2022-08-14T10:16:22.001Z,99070.94
2022-08-14T10:19:16.019Z,99072.22
2022-08-14T10:23:13.550Z,99075.34
2022-08-14T10:25:20.173Z,99079.72
2022-08-14T10:28:03.957Z,99083.00
2022-08-14T10:30:37.867Z,99078.91
2022-08-14T10:33:26.532Z,99072.84
2022-08-14T10:36:05.389Z,99082.75
2022-08-14T10:38:44.386Z,99074.94
2022-08-14T10:41:46.529Z,99075.16
2022-08-14T10:44:32.760Z,99071.88
2022-08-14T10:47:40.959Z,99071.63
2022-08-14T10:50:07.445Z,99076.41
2022-08-14T10:52:46.785Z,99079.22
2022-08-14T10:55:22.681Z,99078.91
2022-08-14T10:57:58.325Z,99066.84
2022-08-14T11:00:38.644Z,99068.66
2022-08-14T11:03:55.299Z,99064.69
2022-08-14T11:06:30.246Z,99064.38
2022-08-14T11:09:16.891Z,99062.81
2022-08-14T11:12:33.943Z,99066.25
2022-08-14T11:15:04.188Z,99056.75
2022-08-14T11:17:46.494Z,99051.97
2022-08-14T11:20:36.222Z,99053.03
2022-08-14T11:23:10.935Z,99046.22
2022-08-14T11:25:53.281Z,99042.72
2022-08-14T11:28:46.167Z,99037.06
2022-08-14T11:31:35.608Z,99029.47
2022-08-14T11:34:32.302Z,99032.31
2022-08-14T11:37:31.584Z,99033.09
2022-08-14T11:40:29.371Z,99034.97
2022-08-14T11:43:05.312Z,99023.09
2022-08-14T11:45:43.726Z,99021.41
2022-08-14T11:49:02.018Z,99018.72
2022-08-14T11:51:30.665Z,99017.16
2022-08-14T11:54:13.991Z,99015.03
2022-08-14T11:56:57.239Z,99009.44
2022-08-14T11:59:44.243Z,99006.56
2022-08-14T12:02:38.891Z,99014.00
2022-08-14T12:05:28.110Z,98994.78
2022-08-14T12:08:02.912Z,98993.72
2022-08-14T12:10:46.165Z,98987.09
2022-08-14T12:13:28.706Z,98985.13
2022-08-14T12:16:11.225Z,98987.56
2022-08-14T12:19:01.357Z,98978.06
2022-08-14T12:21:36.913Z,98976.25
2022-08-14T12:24:31.763Z,98975.59
2022-08-14T12:27:24.965Z,98974.47
2022-08-14T12:30:03.325Z,98973.94
2022-08-14T12:32:47.710Z,98979.13
2022-08-14T12:35:17.759Z,98968.47
2022-08-14T12:38:01.600Z,98969.84
2022-08-14T12:40:47.666Z,98975.44
2022-08-14T12:43:33.580Z,98967.03
2022-08-14T12:46:27.280Z,98972.78
2022-08-14T12:49:16.138Z,98966.44
2022-08-14T12:52:03.086Z,98965.13
2022-08-14T12:54:57.584Z,98968.50
2022-08-14T12:57:53.133Z,98964.19
2022-08-14T13:00:32.776Z,98956.22
2022-08-14T13:03:11.228Z,98949.56
2022-08-14T13:05:48.601Z,98952.41
2022-08-14T13:08:33.986Z,98959.28
2022-08-14T13:11:16.479Z,98956.09
2022-08-14T13:14:03.091Z,98944.03
2022-08-14T13:16:50.189Z,98957.69
2022-08-14T13:19:26.807Z,98944.06
2022-08-14T13:22:10.065Z,98944.06
2022-08-14T13:24:57.192Z,98941.63
2022-08-14T13:27:39.142Z,98937.50
2022-08-14T13:30:23.728Z,98933.38
2022-08-14T13:33:02.262Z,98930.66
2022-08-14T13:35:43.170Z,98930.03
2022-08-14T13:38:26.430Z,98924.72
2022-08-14T13:41:06.198Z,98926.69
2022-08-14T13:43:49.247Z,98923.91
2022-08-14T13:46:45.933Z,98911.69
2022-08-14T13:49:23.837Z,98911.56
2022-08-14T13:52:48.793Z,98916.44
2022-08-14T13:55:08.687Z,98909.41
2022-08-14T13:58:03.016Z,98915.88
2022-08-14T14:00:52.925Z,98906.28
2022-08-14T14:03:35.895Z,98903.09
2022-08-14T14:06:13.615Z,98902.66
2022-08-14T14:08:55.056Z,98907.06
2022-08-14T14:11:34.965Z,98897.94
2022-08-14T14:14:44.832Z,98889.13
2022-08-14T14:17:18.710Z,98892.66
2022-08-14T14:20:00.639Z,98891.47
2022-08-14T14:23:02.225Z,98889.34
2022-08-14T14:25:45.835Z,98894.47
2022-08-14T14:28:29.868Z,98896.97
2022-08-14T14:31:06.218Z,98882.22
2022-08-14T14:33:50.737Z,98886.72
2022-08-14T14:36:32.752Z,98889.94
2022-08-14T14:39:08.776Z,98882.72
2022-08-14T14:41:46.341Z,98889.06
2022-08-14T14:44:35.958Z,98885.06
2022-08-14T14:47:22.779Z,98894.75
2022-08-14T14:49:57.347Z,98887.13
2022-08-14T14:52:37.113Z,98885.50
2022-08-14T14:55:10.482Z,98885.94
2022-08-14T14:57:52.202Z,98885.88
2022-08-14T15:00:32.759Z,98885.41
2022-08-14T15:03:16.237Z,98882.34
2022-08-14T15:05:47.833Z,98888.34
2022-08-14T15:08:26.628Z,98883.09
2022-08-14T15:11:23.540Z,98887.53
2022-08-14T15:14:56.121Z,98882.31
2022-08-14T15:17:12.109Z,98887.50
2022-08-14T15:19:56.248Z,98883.94
2022-08-14T15:22:40.290Z,98885.94
2022-08-14T15:25:43.903Z,98887.53
2022-08-14T15:28:29.712Z,98889.34
2022-08-14T15:31:20.113Z,98879.28
2022-08-14T15:34:44.088Z,98878.94
2022-08-14T15:37:13.075Z,98886.69
2022-08-14T15:39:57.407Z,98880.28
2022-08-14T15:42:38.082Z,98877.13
2022-08-14T15:45:20.413Z,98873.47
2022-08-14T15:48:00.572Z,98869.63
2022-08-14T15:50:43.412Z,98876.97
2022-08-14T15:53:31.368Z,98879.50
2022-08-14T15:56:07.496Z,98870.81
2022-08-14T15:58:47.307Z,98863.78
2022-08-14T16:01:43.650Z,98875.06
2022-08-14T16:04:27.408Z,98870.03
2022-08-14T16:06:59.606Z,98869.16
2022-08-14T16:10:01.351Z,98864.81
2022-08-14T16:12:50.546Z,98867.31
2022-08-14T16:15:25.524Z,98867.06
2022-08-14T16:18:20.190Z,98864.59
2022-08-14T16:21:02.154Z,98862.94
2022-08-14T16:23:44.222Z,98870.06
2022-08-14T16:26:29.854Z,98858.41
2022-08-14T16:29:15.533Z,98864.84
2022-08-14T16:31:49.947Z,98871.28
2022-08-14T16:34:45.338Z,98868.59
2022-08-14T16:37:33.898Z,98881.94
2022-08-14T16:40:06.853Z,98868.41
2022-08-14T16:43:04.146Z,98873.09
2022-08-14T16:45:44.297Z,98866.69
2022-08-14T16:48:55.141Z,98869.03
2022-08-14T16:51:28.321Z,98876.00
2022-08-14T16:54:33.702Z,98879.31
2022-08-14T16:57:50.407Z,98880.44
2022-08-14T17:00:43.813Z,98875.47
2022-08-14T17:03:27.125Z,98879.59
2022-08-14T17:06:02.206Z,98870.81
2022-08-14T17:09:03.161Z,98863.06
2022-08-14T17:12:01.382Z,98870.88
2022-08-14T17:15:09.951Z,98879.88
2022-08-14T17:17:59.761Z,98872.47
2022-08-14T17:21:00.266Z,98868.00
2022-08-14T17:23:35.863Z,98868.94
2022-08-14T17:26:32.270Z,98876.28
2022-08-14T17:29:24.312Z,98876.56
2022-08-14T17:32:28.058Z,98877.25
2022-08-14T17:35:16.862Z,98881.94
2022-08-14T17:37:55.981Z,98871.25
2022-08-14T17:40:33.239Z,98872.72
2022-08-14T17:43:11.792Z,98874.84
2022-08-14T17:45:55.030Z,98879.78
2022-08-14T17:49:14.693Z,98883.03
2022-08-14T17:51:58.853Z,98888.09
2022-08-14T17:54:38.392Z,98879.22
2022-08-14T17:57:13.584Z,98877.50
2022-08-14T17:59:51.204Z,98877.66
2022-08-14T18:02:31.457Z,98878.81
2022-08-14T18:05:12.978Z,98871.16
2022-08-14T18:08:31.981Z,98869.16
2022-08-14T18:10:58.022Z,98883.84
2022-08-14T18:13:51.572Z,98878.81
2022-08-14T18:16:35.488Z,98878.34
2022-08-14T18:19:17.086Z,98876.38
2022-08-14T18:21:58.082Z,98878.50
2022-08-14T18:24:41.455Z,98885.28
2022-08-14T18:27:26.101Z,98880.00
2022-08-14T18:30:33.390Z,98881.19
2022-08-14T18:33:28.322Z,98873.13
2022-08-14T18:36:48.388Z,98878.81
2022-08-14T18:39:28.294Z,98878.00
2022-08-14T18:42:23.831Z,98877.66
2022-08-14T18:45:12.995Z,98878.81
2022-08-14T18:48:16.550Z,98875.56
2022-08-14T18:51:10.119Z,98876.03
2022-08-14T18:54:02.646Z,98882.72
2022-08-14T18:56:57.718Z,98885.81
2022-08-14T18:59:52.766Z,98883.25
2022-08-14T19:02:48.406Z,98884.88
2022-08-14T19:05:41.091Z,98881.13
2022-08-14T19:08:31.480Z,98892.94
2022-08-14T19:11:32.101Z,98893.72
2022-08-14T19:14:09.613Z,98890.94
2022-08-14T19:16:54.930Z,98891.91
2022-08-14T19:19:43.494Z,98891.25
2022-08-14T19:22:29.812Z,98887.50
2022-08-14T19:25:05.789Z,98891.63
2022-08-14T19:27:46.999Z,98887.88
2022-08-14T19:30:23.395Z,98895.13
2022-08-14T19:33:08.732Z,98893.16
2022-08-14T19:35:56.050Z,98893.59
2022-08-14T19:38:54.166Z,98889.16
2022-08-14T19:41:41.319Z,98882.84
2022-08-14T19:44:32.016Z,98892.03
2022-08-14T19:47:12.450Z,98891.81
2022-08-14T19:50:07.377Z,98891.78
2022-08-14T19:53:01.254Z,98897.28
2022-08-14T19:55:45.678Z,98897.34
2022-08-14T19:58:30.007Z,98889.50
2022-08-14T20:01:12.171Z,98888.63
2022-08-14T20:04:00.565Z,98883.88
2022-08-14T20:06:46.750Z,98881.38
2022-08-14T20:11:12.351Z,98879.50
2022-08-14T20:12:28.678Z,98892.66
2022-08-14T20:15:21.084Z,98894.78
2022-08-14T20:17:57.410Z,98892.28
2022-08-14T20:20:42.172Z,98899.38
2022-08-14T20:23:23.008Z,98902.22
2022-08-14T20:26:10.369Z,98910.38
2022-08-14T20:28:51.754Z,98906.91
2022-08-14T20:31:37.632Z,98909.44
2022-08-14T20:34:24.990Z,98904.88
2022-08-14T20:37:25.415Z,98903.56
2022-08-14T20:40:23.369Z,98900.91
2022-08-14T20:43:20.448Z,98906.94
2022-08-14T20:46:03.323Z,98909.97
2022-08-14T20:48:53.073Z,98908.47
2022-08-14T20:51:37.034Z,98912.09
2022-08-14T20:54:16.082Z,98909.75
2022-08-14T20:56:56.981Z,98904.97
2022-08-14T20:59:40.378Z,98899.78
2022-08-14T21:02:50.435Z,98911.16
2022-08-14T21:05:33.353Z,98907.91
2022-08-14T21:08:25.754Z,98909.63
2022-08-14T21:11:04.278Z,98907.19
2022-08-14T21:14:19.435Z,98915.00
2022-08-14T21:16:58.622Z,98912.13
2022-08-14T21:19:43.061Z,98916.03
2022-08-14T21:22:28.563Z,98909.56
2022-08-14T21:25:12.582Z,98923.72
2022-08-14T21:27:56.595Z,98918.13
2022-08-14T21:30:46.969Z,98920.41
2022-08-14T21:33:42.947Z,98916.03
2022-08-14T21:36:31.053Z,98919.47
2022-08-14T21:39:21.335Z,98914.06
2022-08-14T21:42:05.787Z,98912.81
2022-08-14T21:44:44.478Z,98914.22
2022-08-14T21:47:24.475Z,98913.25
2022-08-14T21:50:56.516Z,98920.72
2022-08-14T21:53:20.510Z,98918.66
2022-08-14T21:55:58.629Z,98917.34
2022-08-14T21:58:53.086Z,98917.94
2022-08-14T22:01:29.782Z,98916.38
2022-08-14T22:04:33.426Z,98908.09
2022-08-14T22:07:18.089Z,98920.31
2022-08-14T22:09:55.343Z,98914.38
2022-08-14T22:12:47.267Z,98920.09
2022-08-14T22:15:39.821Z,98919.38
2022-08-14T22:18:25.536Z,98920.78
2022-08-14T22:21:06.041Z,98913.00
2022-08-14T22:23:43.501Z,98916.25
2022-08-14T22:26:20.007Z,98911.34
2022-08-14T22:29:19.028Z,98910.09
2022-08-14T22:32:07.187Z,98905.72
2022-08-14T22:34:48.127Z,98908.78
2022-08-14T22:37:25.347Z,98911.59
2022-08-14T22:40:43.822Z,98908.84
2022-08-14T22:43:27.667Z,98915.56
2022-08-14T22:46:22.564Z,98900.50
2022-08-14T22:49:15.374Z,98909.50
2022-08-14T22:52:31.914Z,98898.22
2022-08-14T22:55:16.055Z,98900.13
2022-08-14T22:58:00.283Z,98899.09
2022-08-14T23:00:43.684Z,98891.75
2022-08-14T23:03:20.956Z,98887.56
2022-08-14T23:05:59.286Z,98898.03
2022-08-14T23:08:58.130Z,98904.09
2022-08-14T23:11:45.581Z,98902.53
2022-08-14T23:14:26.766Z,98902.56
2022-08-14T23:17:06.009Z,98897.69
2022-08-14T23:19:46.793Z,98895.84
2022-08-14T23:22:26.904Z,98893.22
2022-08-14T23:25:02.980Z,98897.88
2022-08-14T23:28:03.639Z,98895.41
2022-08-14T23:30:49.096Z,98898.13
2022-08-14T23:33:33.114Z,98899.28
2022-08-14T23:36:32.847Z,98895.50
2022-08-14T23:39:10.255Z,98898.56
2022-08-14T23:41:53.156Z,98900.53
2022-08-14T23:44:35.273Z,98895.84
2022-08-14T23:47:26.581Z,98893.72
2022-08-14T23:50:33.872Z,98893.97
2022-08-14T23:53:52.044Z,98888.88
2022-08-14T23:56:32.272Z,98890.75
2022-08-14T23:59:10.326Z,98892.19
